sensor_id;sensor_type;location;lat;lon;timestamp;temperature;humidity
25440;DHT22;13365;52.208;5.488;2023-05-07T00:00:16;20.50;98.10
25440;DHT22;13365;52.208;5.488;2023-05-07T00:02:44;20.60;98.70
25440;DHT22;13365;52.208;5.488;2023-05-07T00:05:10;20.50;98.10
25440;DHT22;13365;52.208;5.488;2023-05-07T00:07:35;20.50;98.30
25440;DHT22;13365;52.208;5.488;2023-05-07T00:10:02;20.40;98.20
25440;DHT22;13365;52.208;5.488;2023-05-07T00:12:27;20.50;98.40
25440;DHT22;13365;52.208;5.488;2023-05-07T00:14:53;20.50;98.30
25440;DHT22;13365;52.208;5.488;2023-05-07T00:17:18;20.50;98.30
25440;DHT22;13365;52.208;5.488;2023-05-07T00:19:45;20.50;98.20
25440;DHT22;13365;52.208;5.488;2023-05-07T00:22:11;20.50;98.00
25440;DHT22;13365;52.208;5.488;2023-05-07T00:24:37;20.50;97.90
25440;DHT22;13365;52.208;5.488;2023-05-07T00:27:02;20.50;97.80
25440;DHT22;13365;52.208;5.488;2023-05-07T00:29:28;20.50;97.80
25440;DHT22;13365;52.208;5.488;2023-05-07T00:31:53;20.40;97.80
25440;DHT22;13365;52.208;5.488;2023-05-07T00:34:20;20.40;97.80
25440;DHT22;13365;52.208;5.488;2023-05-07T00:36:45;20.40;97.90
25440;DHT22;13365;52.208;5.488;2023-05-07T00:39:11;20.20;97.80
25440;DHT22;13365;52.208;5.488;2023-05-07T00:41:36;20.20;97.80
25440;DHT22;13365;52.208;5.488;2023-05-07T00:44:02;20.20;97.70
25440;DHT22;13365;52.208;5.488;2023-05-07T00:46:28;20.40;97.70
25440;DHT22;13365;52.208;5.488;2023-05-07T00:48:56;20.30;97.70
25440;DHT22;13365;52.208;5.488;2023-05-07T00:51:22;20.20;97.70
25440;DHT22;13365;52.208;5.488;2023-05-07T00:53:48;20.20;97.70
25440;DHT22;13365;52.208;5.488;2023-05-07T00:56:13;20.20;97.70
25440;DHT22;13365;52.208;5.488;2023-05-07T00:58:40;20.20;97.70
25440;DHT22;13365;52.208;5.488;2023-05-07T01:01:06;20.20;97.60
25440;DHT22;13365;52.208;5.488;2023-05-07T01:03:31;20.20;97.50
25440;DHT22;13365;52.208;5.488;2023-05-07T01:05:57;20.20;97.60
25440;DHT22;13365;52.208;5.488;2023-05-07T01:08:24;20.20;97.60
25440;DHT22;13365;52.208;5.488;2023-05-07T01:10:52;20.20;97.60
25440;DHT22;13365;52.208;5.488;2023-05-07T01:13:18;20.20;97.60
25440;DHT22;13365;52.208;5.488;2023-05-07T01:15:44;20.20;97.60
25440;DHT22;13365;52.208;5.488;2023-05-07T01:18:10;20.20;97.60
25440;DHT22;13365;52.208;5.488;2023-05-07T01:20:36;20.20;97.50
25440;DHT22;13365;52.208;5.488;2023-05-07T01:23:03;20.30;97.50
25440;DHT22;13365;52.208;5.488;2023-05-07T01:25:29;20.30;97.40
25440;DHT22;13365;52.208;5.488;2023-05-07T01:27:55;20.30;97.40
25440;DHT22;13365;52.208;5.488;2023-05-07T01:30:22;20.20;97.40
25440;DHT22;13365;52.208;5.488;2023-05-07T01:33:03;20.10;97.50
25440;DHT22;13365;52.208;5.488;2023-05-07T01:35:30;20.20;97.50
25440;DHT22;13365;52.208;5.488;2023-05-07T01:37:57;20.20;97.50
25440;DHT22;13365;52.208;5.488;2023-05-07T01:40:24;20.20;97.80
25440;DHT22;13365;52.208;5.488;2023-05-07T01:42:50;20.20;97.40
25440;DHT22;13365;52.208;5.488;2023-05-07T01:45:16;20.20;97.40
25440;DHT22;13365;52.208;5.488;2023-05-07T01:47:42;20.30;97.50
25440;DHT22;13365;52.208;5.488;2023-05-07T01:50:09;20.30;97.40
25440;DHT22;13365;52.208;5.488;2023-05-07T01:52:37;20.30;97.30
25440;DHT22;13365;52.208;5.488;2023-05-07T01:55:03;20.30;97.30
25440;DHT22;13365;52.208;5.488;2023-05-07T01:57:29;20.40;97.30
25440;DHT22;13365;52.208;5.488;2023-05-07T01:59:54;20.40;97.30
25440;DHT22;13365;52.208;5.488;2023-05-07T02:02:20;20.40;97.30
25440;DHT22;13365;52.208;5.488;2023-05-07T02:04:45;20.40;97.30
25440;DHT22;13365;52.208;5.488;2023-05-07T02:07:11;20.30;97.20
25440;DHT22;13365;52.208;5.488;2023-05-07T02:09:36;20.40;97.30
25440;DHT22;13365;52.208;5.488;2023-05-07T02:12:02;20.40;97.20
25440;DHT22;13365;52.208;5.488;2023-05-07T02:14:27;20.40;97.20
25440;DHT22;13365;52.208;5.488;2023-05-07T02:16:53;20.40;97.30
25440;DHT22;13365;52.208;5.488;2023-05-07T02:19:18;20.40;97.30
25440;DHT22;13365;52.208;5.488;2023-05-07T02:21:46;20.40;97.20
25440;DHT22;13365;52.208;5.488;2023-05-07T02:24:12;20.40;97.70
25440;DHT22;13365;52.208;5.488;2023-05-07T02:26:37;20.40;97.70
25440;DHT22;13365;52.208;5.488;2023-05-07T02:29:03;20.40;97.40
25440;DHT22;13365;52.208;5.488;2023-05-07T02:31:28;20.40;97.30
25440;DHT22;13365;52.208;5.488;2023-05-07T02:33:54;20.40;97.30
25440;DHT22;13365;52.208;5.488;2023-05-07T02:36:19;20.40;97.30
25440;DHT22;13365;52.208;5.488;2023-05-07T02:38:45;20.30;97.30
25440;DHT22;13365;52.208;5.488;2023-05-07T02:41:10;20.30;97.30
25440;DHT22;13365;52.208;5.488;2023-05-07T02:43:36;20.30;97.20
25440;DHT22;13365;52.208;5.488;2023-05-07T02:46:06;20.30;97.40
25440;DHT22;13365;52.208;5.488;2023-05-07T02:48:32;20.30;97.40
25440;DHT22;13365;52.208;5.488;2023-05-07T02:50:59;20.20;97.30
25440;DHT22;13365;52.208;5.488;2023-05-07T02:53:25;20.20;97.40
25440;DHT22;13365;52.208;5.488;2023-05-07T02:55:53;20.20;97.40
25440;DHT22;13365;52.208;5.488;2023-05-07T02:58:18;20.20;97.40
25440;DHT22;13365;52.208;5.488;2023-05-07T03:00:44;20.00;97.20
25440;DHT22;13365;52.208;5.488;2023-05-07T03:03:09;20.00;97.50
25440;DHT22;13365;52.208;5.488;2023-05-07T03:05:37;20.00;97.50
25440;DHT22;13365;52.208;5.488;2023-05-07T03:08:03;20.10;97.40
25440;DHT22;13365;52.208;5.488;2023-05-07T03:10:29;20.00;97.50
25440;DHT22;13365;52.208;5.488;2023-05-07T03:12:55;19.90;97.40
25440;DHT22;13365;52.208;5.488;2023-05-07T03:15:21;19.90;97.60
25440;DHT22;13365;52.208;5.488;2023-05-07T03:17:47;20.00;97.60
25440;DHT22;13365;52.208;5.488;2023-05-07T03:20:13;20.00;97.60
25440;DHT22;13365;52.208;5.488;2023-05-07T03:22:39;20.00;97.50
25440;DHT22;13365;52.208;5.488;2023-05-07T03:25:06;20.00;97.60
25440;DHT22;13365;52.208;5.488;2023-05-07T03:27:32;20.00;97.70
25440;DHT22;13365;52.208;5.488;2023-05-07T03:29:57;20.00;97.80
25440;DHT22;13365;52.208;5.488;2023-05-07T03:32:23;20.00;97.80
25440;DHT22;13365;52.208;5.488;2023-05-07T03:34:48;19.90;97.80
25440;DHT22;13365;52.208;5.488;2023-05-07T03:37:14;19.90;97.80
25440;DHT22;13365;52.208;5.488;2023-05-07T03:39:39;19.90;97.90
25440;DHT22;13365;52.208;5.488;2023-05-07T03:42:05;19.90;97.90
25440;DHT22;13365;52.208;5.488;2023-05-07T03:44:30;19.90;97.90
25440;DHT22;13365;52.208;5.488;2023-05-07T03:46:56;20.00;97.90
25440;DHT22;13365;52.208;5.488;2023-05-07T03:49:21;20.00;97.90
25440;DHT22;13365;52.208;5.488;2023-05-07T03:51:47;20.00;97.80
25440;DHT22;13365;52.208;5.488;2023-05-07T03:54:12;20.00;97.70
25440;DHT22;13365;52.208;5.488;2023-05-07T03:56:38;19.90;97.80
25440;DHT22;13365;52.208;5.488;2023-05-07T03:59:03;20.00;97.90
25440;DHT22;13365;52.208;5.488;2023-05-07T04:01:29;20.00;97.90
25440;DHT22;13365;52.208;5.488;2023-05-07T04:03:55;20.10;98.00
25440;DHT22;13365;52.208;5.488;2023-05-07T04:06:21;20.10;98.00
25440;DHT22;13365;52.208;5.488;2023-05-07T04:08:46;20.10;98.00
25440;DHT22;13365;52.208;5.488;2023-05-07T04:11:12;20.00;98.40
25440;DHT22;13365;52.208;5.488;2023-05-07T04:13:37;20.10;98.20
25440;DHT22;13365;52.208;5.488;2023-05-07T04:16:04;20.00;98.30
25440;DHT22;13365;52.208;5.488;2023-05-07T04:18:30;20.10;98.30
25440;DHT22;13365;52.208;5.488;2023-05-07T04:20:55;19.80;98.50
25440;DHT22;13365;52.208;5.488;2023-05-07T04:23:21;19.70;99.10
25440;DHT22;13365;52.208;5.488;2023-05-07T04:25:46;19.80;99.30
25440;DHT22;13365;52.208;5.488;2023-05-07T04:28:12;19.70;99.40
25440;DHT22;13365;52.208;5.488;2023-05-07T04:30:38;19.60;99.60
25440;DHT22;13365;52.208;5.488;2023-05-07T04:33:04;19.60;99.90
25440;DHT22;13365;52.208;5.488;2023-05-07T04:35:30;19.60;99.90
25440;DHT22;13365;52.208;5.488;2023-05-07T04:37:55;19.70;99.70
25440;DHT22;13365;52.208;5.488;2023-05-07T04:40:21;19.60;99.90
25440;DHT22;13365;52.208;5.488;2023-05-07T04:42:46;19.70;99.90
25440;DHT22;13365;52.208;5.488;2023-05-07T04:45:12;19.60;99.90
25440;DHT22;13365;52.208;5.488;2023-05-07T04:47:38;19.40;99.90
25440;DHT22;13365;52.208;5.488;2023-05-07T04:50:04;19.30;99.90
25440;DHT22;13365;52.208;5.488;2023-05-07T04:52:30;19.20;99.90
25440;DHT22;13365;52.208;5.488;2023-05-07T04:54:58;19.30;99.90
25440;DHT22;13365;52.208;5.488;2023-05-07T04:57:24;19.30;99.90
25440;DHT22;13365;52.208;5.488;2023-05-07T04:59:49;19.20;99.90
25440;DHT22;13365;52.208;5.488;2023-05-07T05:02:15;19.30;99.90
25440;DHT22;13365;52.208;5.488;2023-05-07T05:04:41;19.30;99.90
25440;DHT22;13365;52.208;5.488;2023-05-07T05:07:06;19.30;99.90
25440;DHT22;13365;52.208;5.488;2023-05-07T05:09:32;19.40;99.90
25440;DHT22;13365;52.208;5.488;2023-05-07T05:11:58;19.40;99.90
25440;DHT22;13365;52.208;5.488;2023-05-07T05:14:24;19.30;99.90
25440;DHT22;13365;52.208;5.488;2023-05-07T05:16:50;19.40;99.90
25440;DHT22;13365;52.208;5.488;2023-05-07T05:19:15;19.30;99.90
25440;DHT22;13365;52.208;5.488;2023-05-07T05:21:41;19.40;99.90
25440;DHT22;13365;52.208;5.488;2023-05-07T05:24:07;19.60;99.90
25440;DHT22;13365;52.208;5.488;2023-05-07T05:26:34;19.70;99.90
25440;DHT22;13365;52.208;5.488;2023-05-07T05:28:59;19.70;99.90
25440;DHT22;13365;52.208;5.488;2023-05-07T05:31:25;19.80;99.90
25440;DHT22;13365;52.208;5.488;2023-05-07T05:33:50;19.90;99.90
25440;DHT22;13365;52.208;5.488;2023-05-07T05:36:17;19.90;99.90
25440;DHT22;13365;52.208;5.488;2023-05-07T05:38:43;20.00;99.90
25440;DHT22;13365;52.208;5.488;2023-05-07T05:41:09;20.10;99.90
25440;DHT22;13365;52.208;5.488;2023-05-07T05:43:35;20.20;99.90
25440;DHT22;13365;52.208;5.488;2023-05-07T05:46:01;20.20;99.90
25440;DHT22;13365;52.208;5.488;2023-05-07T05:48:26;20.20;99.90
25440;DHT22;13365;52.208;5.488;2023-05-07T05:50:52;20.30;99.90
25440;DHT22;13365;52.208;5.488;2023-05-07T05:53:18;20.20;99.90
25440;DHT22;13365;52.208;5.488;2023-05-07T05:55:43;20.30;99.90
25440;DHT22;13365;52.208;5.488;2023-05-07T05:58:09;20.40;99.90
25440;DHT22;13365;52.208;5.488;2023-05-07T06:00:35;20.60;99.90
25440;DHT22;13365;52.208;5.488;2023-05-07T06:03:00;20.50;99.90
25440;DHT22;13365;52.208;5.488;2023-05-07T06:05:26;20.50;99.90
25440;DHT22;13365;52.208;5.488;2023-05-07T06:07:51;20.60;99.90
25440;DHT22;13365;52.208;5.488;2023-05-07T06:10:17;20.60;99.90
25440;DHT22;13365;52.208;5.488;2023-05-07T06:12:43;20.60;99.90
25440;DHT22;13365;52.208;5.488;2023-05-07T06:15:09;20.50;99.90
25440;DHT22;13365;52.208;5.488;2023-05-07T06:17:34;20.40;99.90
25440;DHT22;13365;52.208;5.488;2023-05-07T06:20:00;20.20;99.90
25440;DHT22;13365;52.208;5.488;2023-05-07T06:22:25;20.30;99.90
25440;DHT22;13365;52.208;5.488;2023-05-07T06:24:51;20.60;99.90
25440;DHT22;13365;52.208;5.488;2023-05-07T06:27:17;20.70;99.90
25440;DHT22;13365;52.208;5.488;2023-05-07T06:29:42;20.70;99.90
25440;DHT22;13365;52.208;5.488;2023-05-07T06:32:12;20.70;99.90
25440;DHT22;13365;52.208;5.488;2023-05-07T06:34:38;20.90;99.90
25440;DHT22;13365;52.208;5.488;2023-05-07T06:37:05;21.10;99.90
25440;DHT22;13365;52.208;5.488;2023-05-07T06:39:30;21.30;99.90
25440;DHT22;13365;52.208;5.488;2023-05-07T06:41:56;21.40;99.90
25440;DHT22;13365;52.208;5.488;2023-05-07T06:44:22;21.40;99.90
25440;DHT22;13365;52.208;5.488;2023-05-07T06:46:47;21.50;99.40
25440;DHT22;13365;52.208;5.488;2023-05-07T06:49:13;21.50;99.20
25440;DHT22;13365;52.208;5.488;2023-05-07T06:51:39;21.60;98.80
25440;DHT22;13365;52.208;5.488;2023-05-07T06:54:05;21.70;98.50
25440;DHT22;13365;52.208;5.488;2023-05-07T06:56:31;21.70;98.60
25440;DHT22;13365;52.208;5.488;2023-05-07T06:58:57;21.70;98.70
25440;DHT22;13365;52.208;5.488;2023-05-07T07:01:22;21.80;98.70
25440;DHT22;13365;52.208;5.488;2023-05-07T07:03:48;21.70;98.90
25440;DHT22;13365;52.208;5.488;2023-05-07T07:06:14;21.80;99.00
25440;DHT22;13365;52.208;5.488;2023-05-07T07:08:39;21.90;98.20
25440;DHT22;13365;52.208;5.488;2023-05-07T07:11:05;21.70;98.20
25440;DHT22;13365;52.208;5.488;2023-05-07T07:13:31;21.80;98.50
25440;DHT22;13365;52.208;5.488;2023-05-07T07:15:57;21.80;98.60
25440;DHT22;13365;52.208;5.488;2023-05-07T07:18:22;21.80;98.60
25440;DHT22;13365;52.208;5.488;2023-05-07T07:20:48;21.70;98.90
25440;DHT22;13365;52.208;5.488;2023-05-07T07:23:14;21.60;99.30
25440;DHT22;13365;52.208;5.488;2023-05-07T07:25:39;21.70;99.40
25440;DHT22;13365;52.208;5.488;2023-05-07T07:28:05;21.60;99.10
25440;DHT22;13365;52.208;5.488;2023-05-07T07:30:31;21.60;99.40
25440;DHT22;13365;52.208;5.488;2023-05-07T07:32:56;21.60;99.40
25440;DHT22;13365;52.208;5.488;2023-05-07T07:35:28;21.70;99.30
25440;DHT22;13365;52.208;5.488;2023-05-07T07:37:53;21.60;99.50
25440;DHT22;13365;52.208;5.488;2023-05-07T07:40:19;21.50;99.70
25440;DHT22;13365;52.208;5.488;2023-05-07T07:42:44;21.30;99.90
25440;DHT22;13365;52.208;5.488;2023-05-07T07:45:10;21.10;99.90
25440;DHT22;13365;52.208;5.488;2023-05-07T07:47:36;21.10;99.90
25440;DHT22;13365;52.208;5.488;2023-05-07T07:50:01;21.20;99.90
25440;DHT22;13365;52.208;5.488;2023-05-07T07:52:27;21.00;99.90
25440;DHT22;13365;52.208;5.488;2023-05-07T07:54:52;21.10;99.90
25440;DHT22;13365;52.208;5.488;2023-05-07T07:57:18;21.30;99.90
25440;DHT22;13365;52.208;5.488;2023-05-07T07:59:43;21.60;99.90
25440;DHT22;13365;52.208;5.488;2023-05-07T08:02:09;21.90;99.90
25440;DHT22;13365;52.208;5.488;2023-05-07T08:04:34;22.40;99.90
25440;DHT22;13365;52.208;5.488;2023-05-07T08:07:00;22.60;99.10
25440;DHT22;13365;52.208;5.488;2023-05-07T08:09:26;22.80;99.00
25440;DHT22;13365;52.208;5.488;2023-05-07T08:11:51;22.70;98.20
25440;DHT22;13365;52.208;5.488;2023-05-07T08:14:17;22.90;99.00
25440;DHT22;13365;52.208;5.488;2023-05-07T08:16:43;23.20;97.60
25440;DHT22;13365;52.208;5.488;2023-05-07T08:19:08;23.20;98.50
25440;DHT22;13365;52.208;5.488;2023-05-07T08:21:34;23.60;97.80
25440;DHT22;13365;52.208;5.488;2023-05-07T08:23:59;23.90;97.50
25440;DHT22;13365;52.208;5.488;2023-05-07T08:26:25;24.20;98.00
25440;DHT22;13365;52.208;5.488;2023-05-07T08:28:51;24.40;96.10
25440;DHT22;13365;52.208;5.488;2023-05-07T08:31:16;24.60;95.70
25440;DHT22;13365;52.208;5.488;2023-05-07T08:33:42;24.50;95.20
25440;DHT22;13365;52.208;5.488;2023-05-07T08:36:07;24.60;95.30
25440;DHT22;13365;52.208;5.488;2023-05-07T08:38:33;24.60;95.00
25440;DHT22;13365;52.208;5.488;2023-05-07T08:40:58;24.70;93.90
25440;DHT22;13365;52.208;5.488;2023-05-07T08:43:26;24.70;94.60
25440;DHT22;13365;52.208;5.488;2023-05-07T08:45:53;24.50;93.40
25440;DHT22;13365;52.208;5.488;2023-05-07T08:48:22;24.10;94.00
25440;DHT22;13365;52.208;5.488;2023-05-07T08:50:49;23.80;94.90
25440;DHT22;13365;52.208;5.488;2023-05-07T08:53:16;23.90;95.80
25440;DHT22;13365;52.208;5.488;2023-05-07T08:55:42;24.00;95.60
25440;DHT22;13365;52.208;5.488;2023-05-07T08:58:08;24.10;95.00
25440;DHT22;13365;52.208;5.488;2023-05-07T09:00:36;23.90;93.70
25440;DHT22;13365;52.208;5.488;2023-05-07T09:03:01;23.60;93.80
25440;DHT22;13365;52.208;5.488;2023-05-07T09:05:27;23.50;94.40
25440;DHT22;13365;52.208;5.488;2023-05-07T09:07:52;23.40;94.60
25440;DHT22;13365;52.208;5.488;2023-05-07T09:10:18;23.70;94.90
25440;DHT22;13365;52.208;5.488;2023-05-07T09:12:46;23.80;95.20
25440;DHT22;13365;52.208;5.488;2023-05-07T09:15:12;23.70;94.50
25440;DHT22;13365;52.208;5.488;2023-05-07T09:17:37;23.60;95.20
25440;DHT22;13365;52.208;5.488;2023-05-07T09:20:04;23.60;95.30
25440;DHT22;13365;52.208;5.488;2023-05-07T09:22:35;23.90;95.20
25440;DHT22;13365;52.208;5.488;2023-05-07T09:25:01;23.80;95.10
25440;DHT22;13365;52.208;5.488;2023-05-07T09:27:27;23.60;94.70
25440;DHT22;13365;52.208;5.488;2023-05-07T09:29:52;23.50;94.50
25440;DHT22;13365;52.208;5.488;2023-05-07T09:32:18;23.60;95.40
25440;DHT22;13365;52.208;5.488;2023-05-07T09:34:44;23.90;95.80
25440;DHT22;13365;52.208;5.488;2023-05-07T09:37:12;23.90;95.40
25440;DHT22;13365;52.208;5.488;2023-05-07T09:39:42;23.80;95.40
25440;DHT22;13365;52.208;5.488;2023-05-07T09:42:08;24.00;94.60
25440;DHT22;13365;52.208;5.488;2023-05-07T09:44:34;24.10;95.10
25440;DHT22;13365;52.208;5.488;2023-05-07T09:47:00;24.00;95.00
25440;DHT22;13365;52.208;5.488;2023-05-07T09:49:29;24.00;95.20
25440;DHT22;13365;52.208;5.488;2023-05-07T09:51:56;23.90;95.60
25440;DHT22;13365;52.208;5.488;2023-05-07T09:54:24;23.70;95.50
25440;DHT22;13365;52.208;5.488;2023-05-07T09:56:52;23.70;95.30
25440;DHT22;13365;52.208;5.488;2023-05-07T09:59:19;23.50;95.90
25440;DHT22;13365;52.208;5.488;2023-05-07T10:01:45;23.60;95.70
25440;DHT22;13365;52.208;5.488;2023-05-07T10:04:11;23.50;94.60
25440;DHT22;13365;52.208;5.488;2023-05-07T10:06:38;23.30;95.70
25440;DHT22;13365;52.208;5.488;2023-05-07T10:09:04;23.00;96.40
25440;DHT22;13365;52.208;5.488;2023-05-07T10:11:34;23.20;96.10
25440;DHT22;13365;52.208;5.488;2023-05-07T10:14:01;23.20;96.70
25440;DHT22;13365;52.208;5.488;2023-05-07T10:16:29;23.50;96.10
25440;DHT22;13365;52.208;5.488;2023-05-07T10:18:58;23.60;96.30
25440;DHT22;13365;52.208;5.488;2023-05-07T10:21:24;23.70;96.10
25440;DHT22;13365;52.208;5.488;2023-05-07T10:24:03;23.70;94.30
25440;DHT22;13365;52.208;5.488;2023-05-07T10:26:32;23.60;95.30
25440;DHT22;13365;52.208;5.488;2023-05-07T10:29:13;23.70;95.50
25440;DHT22;13365;52.208;5.488;2023-05-07T10:31:52;23.80;95.20
25440;DHT22;13365;52.208;5.488;2023-05-07T10:34:25;23.80;95.70
25440;DHT22;13365;52.208;5.488;2023-05-07T10:36:52;24.10;94.90
25440;DHT22;13365;52.208;5.488;2023-05-07T10:39:20;23.90;95.60
25440;DHT22;13365;52.208;5.488;2023-05-07T10:41:46;24.10;95.00
25440;DHT22;13365;52.208;5.488;2023-05-07T10:44:27;24.10;94.40
25440;DHT22;13365;52.208;5.488;2023-05-07T10:47:09;23.90;94.00
25440;DHT22;13365;52.208;5.488;2023-05-07T10:52:30;23.60;95.50
25440;DHT22;13365;52.208;5.488;2023-05-07T10:57:40;24.40;95.20
25440;DHT22;13365;52.208;5.488;2023-05-07T11:05:28;24.90;93.00
25440;DHT22;13365;52.208;5.488;2023-05-07T11:07:58;24.70;93.90
25440;DHT22;13365;52.208;5.488;2023-05-07T11:10:48;24.90;94.50
25440;DHT22;13365;52.208;5.488;2023-05-07T11:13:14;25.30;93.70
25440;DHT22;13365;52.208;5.488;2023-05-07T11:15:45;25.50;91.80
25440;DHT22;13365;52.208;5.488;2023-05-07T11:18:12;25.40;92.40
25440;DHT22;13365;52.208;5.488;2023-05-07T11:26:06;25.50;90.50
25440;DHT22;13365;52.208;5.488;2023-05-07T11:28:38;25.20;92.00
25440;DHT22;13365;52.208;5.488;2023-05-07T11:31:04;25.10;92.10
25440;DHT22;13365;52.208;5.488;2023-05-07T11:33:31;25.30;91.40
25440;DHT22;13365;52.208;5.488;2023-05-07T11:35:57;25.40;92.20
25440;DHT22;13365;52.208;5.488;2023-05-07T11:38:25;25.70;91.60
25440;DHT22;13365;52.208;5.488;2023-05-07T11:40:52;25.90;92.20
25440;DHT22;13365;52.208;5.488;2023-05-07T11:43:18;26.10;90.30
25440;DHT22;13365;52.208;5.488;2023-05-07T11:45:45;26.20;90.80
25440;DHT22;13365;52.208;5.488;2023-05-07T11:48:12;26.20;90.50
25440;DHT22;13365;52.208;5.488;2023-05-07T11:50:59;26.00;90.50
25440;DHT22;13365;52.208;5.488;2023-05-07T11:53:26;25.80;90.30
25440;DHT22;13365;52.208;5.488;2023-05-07T11:55:53;25.80;91.10
25440;DHT22;13365;52.208;5.488;2023-05-07T11:58:24;25.80;90.30
25440;DHT22;13365;52.208;5.488;2023-05-07T12:00:53;25.40;89.40
25440;DHT22;13365;52.208;5.488;2023-05-07T12:03:20;25.40;90.70
25440;DHT22;13365;52.208;5.488;2023-05-07T12:05:46;25.50;91.20
25440;DHT22;13365;52.208;5.488;2023-05-07T12:08:15;25.50;91.40
25440;DHT22;13365;52.208;5.488;2023-05-07T12:10:42;25.60;91.10
25440;DHT22;13365;52.208;5.488;2023-05-07T12:13:24;25.70;92.20
25440;DHT22;13365;52.208;5.488;2023-05-07T12:15:53;26.20;90.70
25440;DHT22;13365;52.208;5.488;2023-05-07T12:18:20;26.30;90.00
25440;DHT22;13365;52.208;5.488;2023-05-07T12:20:46;26.40;90.10
25440;DHT22;13365;52.208;5.488;2023-05-07T12:23:13;26.60;90.30
25440;DHT22;13365;52.208;5.488;2023-05-07T12:25:40;26.90;88.80
25440;DHT22;13365;52.208;5.488;2023-05-07T12:28:13;27.30;88.70
25440;DHT22;13365;52.208;5.488;2023-05-07T12:30:44;27.40;86.90
25440;DHT22;13365;52.208;5.488;2023-05-07T12:33:09;27.50;88.90
25440;DHT22;13365;52.208;5.488;2023-05-07T12:35:42;27.20;82.20
25440;DHT22;13365;52.208;5.488;2023-05-07T12:38:13;26.90;87.40
25440;DHT22;13365;52.208;5.488;2023-05-07T12:40:41;26.80;85.20
25440;DHT22;13365;52.208;5.488;2023-05-07T12:43:07;26.70;89.00
25440;DHT22;13365;52.208;5.488;2023-05-07T12:45:40;26.50;87.80
25440;DHT22;13365;52.208;5.488;2023-05-07T12:48:06;26.80;89.30
25440;DHT22;13365;52.208;5.488;2023-05-07T12:50:33;26.90;87.80
25440;DHT22;13365;52.208;5.488;2023-05-07T12:52:59;26.80;85.70
25440;DHT22;13365;52.208;5.488;2023-05-07T12:55:24;27.10;83.10
25440;DHT22;13365;52.208;5.488;2023-05-07T12:57:51;27.30;85.40
25440;DHT22;13365;52.208;5.488;2023-05-07T13:00:32;27.30;84.10
25440;DHT22;13365;52.208;5.488;2023-05-07T13:02:58;27.00;83.20
25440;DHT22;13365;52.208;5.488;2023-05-07T13:05:24;27.20;85.10
25440;DHT22;13365;52.208;5.488;2023-05-07T13:07:53;27.60;79.40
25440;DHT22;13365;52.208;5.488;2023-05-07T13:10:19;27.40;80.40
25440;DHT22;13365;52.208;5.488;2023-05-07T13:12:45;27.30;80.90
25440;DHT22;13365;52.208;5.488;2023-05-07T13:15:10;27.30;84.10
25440;DHT22;13365;52.208;5.488;2023-05-07T13:17:36;27.50;85.10
25440;DHT22;13365;52.208;5.488;2023-05-07T13:20:02;27.70;84.20
25440;DHT22;13365;52.208;5.488;2023-05-07T13:22:27;27.70;81.80
25440;DHT22;13365;52.208;5.488;2023-05-07T13:24:53;27.90;85.40
25440;DHT22;13365;52.208;5.488;2023-05-07T13:27:18;28.10;82.60
25440;DHT22;13365;52.208;5.488;2023-05-07T13:29:44;28.30;80.70
25440;DHT22;13365;52.208;5.488;2023-05-07T13:32:10;28.40;79.90
25440;DHT22;13365;52.208;5.488;2023-05-07T13:34:35;28.60;83.50
25440;DHT22;13365;52.208;5.488;2023-05-07T13:37:02;28.80;81.50
25440;DHT22;13365;52.208;5.488;2023-05-07T13:39:27;29.00;77.20
25440;DHT22;13365;52.208;5.488;2023-05-07T13:41:53;29.10;79.20
25440;DHT22;13365;52.208;5.488;2023-05-07T13:44:18;29.20;79.60
25440;DHT22;13365;52.208;5.488;2023-05-07T13:46:44;29.10;79.50
25440;DHT22;13365;52.208;5.488;2023-05-07T13:49:10;29.30;79.90
25440;DHT22;13365;52.208;5.488;2023-05-07T13:51:36;29.30;78.40
25440;DHT22;13365;52.208;5.488;2023-05-07T13:54:02;29.30;77.80
25440;DHT22;13365;52.208;5.488;2023-05-07T13:56:28;29.40;77.90
25440;DHT22;13365;52.208;5.488;2023-05-07T13:58:56;29.40;76.60
25440;DHT22;13365;52.208;5.488;2023-05-07T14:01:21;29.20;78.20
25440;DHT22;13365;52.208;5.488;2023-05-07T14:03:47;28.90;78.30
25440;DHT22;13365;52.208;5.488;2023-05-07T14:06:12;28.10;79.20
25440;DHT22;13365;52.208;5.488;2023-05-07T14:08:38;28.10;81.30
25440;DHT22;13365;52.208;5.488;2023-05-07T14:11:03;28.00;79.20
25440;DHT22;13365;52.208;5.488;2023-05-07T14:13:29;27.20;80.40
25440;DHT22;13365;52.208;5.488;2023-05-07T14:15:56;26.50;82.30
25440;DHT22;13365;52.208;5.488;2023-05-07T14:18:21;26.30;85.40
25440;DHT22;13365;52.208;5.488;2023-05-07T14:20:47;26.40;85.50
25440;DHT22;13365;52.208;5.488;2023-05-07T14:23:14;26.60;84.10
25440;DHT22;13365;52.208;5.488;2023-05-07T14:25:40;26.60;85.10
25440;DHT22;13365;52.208;5.488;2023-05-07T14:28:06;26.60;84.10
25440;DHT22;13365;52.208;5.488;2023-05-07T14:30:31;26.70;84.60
25440;DHT22;13365;52.208;5.488;2023-05-07T14:32:57;26.70;84.50
25440;DHT22;13365;52.208;5.488;2023-05-07T14:35:23;26.80;85.50
25440;DHT22;13365;52.208;5.488;2023-05-07T14:37:48;27.00;85.40
25440;DHT22;13365;52.208;5.488;2023-05-07T14:40:14;26.90;83.50
25440;DHT22;13365;52.208;5.488;2023-05-07T14:42:40;26.80;82.10
25440;DHT22;13365;52.208;5.488;2023-05-07T14:45:07;26.50;83.20
25440;DHT22;13365;52.208;5.488;2023-05-07T14:47:33;26.30;83.60
25440;DHT22;13365;52.208;5.488;2023-05-07T14:49:58;26.20;84.20
25440;DHT22;13365;52.208;5.488;2023-05-07T14:52:26;26.30;83.70
25440;DHT22;13365;52.208;5.488;2023-05-07T14:54:51;26.30;83.90
25440;DHT22;13365;52.208;5.488;2023-05-07T14:57:17;26.10;84.30
25440;DHT22;13365;52.208;5.488;2023-05-07T14:59:43;25.90;86.20
25440;DHT22;13365;52.208;5.488;2023-05-07T15:02:11;25.90;86.40
25440;DHT22;13365;52.208;5.488;2023-05-07T15:04:37;25.90;85.30
25440;DHT22;13365;52.208;5.488;2023-05-07T15:07:03;25.70;87.20
25440;DHT22;13365;52.208;5.488;2023-05-07T15:09:29;25.70;88.10
25440;DHT22;13365;52.208;5.488;2023-05-07T15:11:55;25.70;87.60
25440;DHT22;13365;52.208;5.488;2023-05-07T15:14:20;25.80;88.10
25440;DHT22;13365;52.208;5.488;2023-05-07T15:16:47;25.70;88.60
25440;DHT22;13365;52.208;5.488;2023-05-07T15:19:13;25.60;87.90
25440;DHT22;13365;52.208;5.488;2023-05-07T15:21:40;25.50;88.00
25440;DHT22;13365;52.208;5.488;2023-05-07T15:24:06;25.50;88.20
25440;DHT22;13365;52.208;5.488;2023-05-07T15:26:32;25.40;89.10
25440;DHT22;13365;52.208;5.488;2023-05-07T15:28:57;25.60;89.20
25440;DHT22;13365;52.208;5.488;2023-05-07T15:31:26;25.60;88.20
25440;DHT22;13365;52.208;5.488;2023-05-07T15:33:51;25.70;88.00
25440;DHT22;13365;52.208;5.488;2023-05-07T15:36:21;25.60;88.80
25440;DHT22;13365;52.208;5.488;2023-05-07T15:38:47;25.50;88.40
25440;DHT22;13365;52.208;5.488;2023-05-07T15:41:13;25.50;87.30